createdAt,value
2022-12-31T00:01:50.596Z,0.20
2022-12-31T00:06:55.583Z,0.10
2022-12-31T00:11:59.152Z,0.30
2022-12-31T00:17:02.865Z,0.30
2022-12-31T00:22:07.868Z,0.27
2022-12-31T00:27:11.465Z,0.13
2022-12-31T00:32:15.109Z,0.20
2022-12-31T00:37:20.041Z,0.13
2022-12-31T00:42:23.647Z,0.20
2022-12-31T00:47:27.266Z,0.10
2022-12-31T00:52:32.499Z,0.20
2022-12-31T00:57:36.113Z,0.23
2022-12-31T01:02:39.865Z,0.20
2022-12-31T01:07:45.143Z,0.10
2022-12-31T01:12:48.743Z,0.13
2022-12-31T01:17:52.402Z,0.10
2022-12-31T01:22:57.652Z,0.10
2022-12-31T01:28:01.708Z,0.10
2022-12-31T01:33:05.690Z,0.10
2022-12-31T01:38:10.673Z,0.10
2022-12-31T01:43:17.825Z,0.07
2022-12-31T01:48:28.446Z,0.10
2022-12-31T01:53:33.511Z,0.10
2022-12-31T01:58:40.421Z,0.00
2022-12-31T02:03:44.398Z,0.10
2022-12-31T02:08:49.403Z,0.00
2022-12-31T02:13:58.360Z,0.10
2022-12-31T02:19:31.034Z,0.07
2022-12-31T02:25:04.515Z,0.00
2022-12-31T02:30:13.795Z,0.00
2022-12-31T02:35:23.046Z,0.00
2022-12-31T02:40:26.910Z,0.00
2022-12-31T02:45:37.884Z,0.03
2022-12-31T02:50:55.460Z,0.10
2022-12-31T02:56:07.124Z,0.00
2022-12-31T03:01:30.857Z,0.00
2022-12-31T03:06:35.573Z,0.10
2022-12-31T03:11:56.880Z,0.00
2022-12-31T03:17:01.863Z,0.10
2022-12-31T03:22:22.916Z,0.10
2022-12-31T03:27:27.237Z,0.00
2022-12-31T03:32:32.317Z,0.10
2022-12-31T03:37:35.945Z,0.10
2022-12-31T03:42:39.646Z,0.10
2022-12-31T03:47:44.934Z,0.00
2022-12-31T03:52:48.912Z,0.03
2022-12-31T03:57:52.813Z,0.10
2022-12-31T04:02:57.872Z,0.10
2022-12-31T04:08:02.957Z,0.03
2022-12-31T04:13:06.523Z,0.10
2022-12-31T04:18:11.555Z,0.10
2022-12-31T04:23:15.274Z,0.10
2022-12-31T04:28:18.898Z,0.10
2022-12-31T04:33:23.833Z,0.07
2022-12-31T04:38:29.445Z,0.10
2022-12-31T04:43:33.399Z,0.10
2022-12-31T04:48:39.494Z,0.10
2022-12-31T04:53:43.521Z,0.10
2022-12-31T04:58:47.234Z,0.10
2022-12-31T05:03:52.795Z,0.00
2022-12-31T05:08:56.596Z,0.07
2022-12-31T05:14:00.238Z,0.10
2022-12-31T05:19:06.367Z,0.07
2022-12-31T05:24:10.162Z,0.20
2022-12-31T05:29:13.767Z,0.20
2022-12-31T05:34:18.994Z,0.10
2022-12-31T05:39:22.584Z,0.40
2022-12-31T05:44:26.250Z,0.10
2022-12-31T05:49:31.238Z,0.20
2022-12-31T05:54:34.971Z,0.33
2022-12-31T05:59:39.353Z,0.20
2022-12-31T06:04:44.311Z,0.30
2022-12-31T06:09:47.924Z,0.30
2022-12-31T06:14:51.561Z,0.40
2022-12-31T06:19:56.541Z,0.40
2022-12-31T06:25:00.136Z,0.33
2022-12-31T06:30:03.750Z,0.20
2022-12-31T06:35:10.262Z,0.40
2022-12-31T06:40:14.457Z,0.20
2022-12-31T06:45:18.576Z,0.30
2022-12-31T06:50:23.547Z,0.30
2022-12-31T06:55:27.935Z,0.30
2022-12-31T07:00:32.023Z,0.30
2022-12-31T07:05:45.345Z,0.30
2022-12-31T07:10:54.772Z,0.30
2022-12-31T07:16:10.609Z,0.30
2022-12-31T07:21:19.210Z,0.40
2022-12-31T07:26:33.971Z,0.53
2022-12-31T07:31:54.927Z,0.30
2022-12-31T07:37:09.359Z,0.37
2022-12-31T07:42:17.802Z,0.40
2022-12-31T07:47:24.235Z,0.40
2022-12-31T07:52:29.815Z,0.10
2022-12-31T07:57:39.570Z,0.20
2022-12-31T08:03:04.838Z,0.40
2022-12-31T08:08:23.459Z,0.40
2022-12-31T08:13:27.700Z,0.30
2022-12-31T08:18:31.687Z,0.37
2022-12-31T08:23:43.722Z,0.30
2022-12-31T08:29:01.490Z,0.40
2022-12-31T08:34:14.042Z,0.50
2022-12-31T08:39:30.338Z,0.40
2022-12-31T08:44:39.799Z,0.40
2022-12-31T08:49:43.986Z,0.30
2022-12-31T08:54:49.593Z,0.40
2022-12-31T09:00:03.392Z,0.40
2022-12-31T09:05:15.944Z,0.50
2022-12-31T09:10:26.245Z,0.50
2022-12-31T09:15:37.533Z,0.50
2022-12-31T09:20:43.776Z,0.60
2022-12-31T09:26:07.995Z,0.40
2022-12-31T09:31:16.643Z,0.50
2022-12-31T09:36:28.032Z,0.33
2022-12-31T09:42:01.222Z,0.40
2022-12-31T09:47:59.828Z,0.40
2022-12-31T09:53:16.095Z,0.50
2022-12-31T09:58:33.373Z,0.40
2022-12-31T10:03:48.695Z,0.40
2022-12-31T10:09:25.941Z,0.53
2022-12-31T10:14:53.846Z,0.50
2022-12-31T10:20:27.535Z,0.40
2022-12-31T10:25:54.490Z,0.30
2022-12-31T10:31:09.859Z,0.30
2022-12-31T10:36:21.956Z,0.37
2022-12-31T10:41:59.929Z,0.50
2022-12-31T10:47:21.861Z,0.30
2022-12-31T10:53:00.723Z,0.50
2022-12-31T10:58:29.315Z,0.30
2022-12-31T11:04:29.995Z,0.30
2022-12-31T11:09:55.466Z,0.40
2022-12-31T11:15:17.088Z,0.50
2022-12-31T11:20:46.025Z,0.40
2022-12-31T11:26:01.617Z,0.50
2022-12-31T11:31:19.895Z,0.53
2022-12-31T11:36:36.050Z,0.50
2022-12-31T11:41:49.603Z,0.50
2022-12-31T11:47:06.372Z,0.50
2022-12-31T11:52:46.034Z,0.37
2022-12-31T11:57:53.366Z,0.80
2022-12-31T12:03:02.220Z,0.50
2022-12-31T12:08:05.995Z,0.50
2022-12-31T12:13:20.644Z,0.83
2022-12-31T12:18:30.525Z,0.80
2022-12-31T12:23:34.270Z,0.47
2022-12-31T12:28:48.120Z,0.70
2022-12-31T12:33:52.833Z,0.60
2022-12-31T12:39:03.061Z,0.73
2022-12-31T12:44:09.977Z,0.60
2022-12-31T12:49:22.434Z,0.70
2022-12-31T12:54:39.977Z,0.60
2022-12-31T13:00:07.557Z,0.60
2022-12-31T13:05:27.839Z,0.53
2022-12-31T13:10:46.471Z,0.40
2022-12-31T13:15:58.341Z,0.90
2022-12-31T13:21:08.691Z,0.70
2022-12-31T13:26:17.689Z,0.70
2022-12-31T13:31:27.444Z,0.47
2022-12-31T13:36:32.718Z,0.50
2022-12-31T13:41:42.907Z,0.60
2022-12-31T13:46:51.332Z,0.67
2022-12-31T13:51:58.981Z,0.50
2022-12-31T13:57:09.309Z,0.50
2022-12-31T14:02:31.375Z,0.50
2022-12-31T14:07:45.324Z,0.43
2022-12-31T14:12:54.922Z,0.40
2022-12-31T14:18:07.795Z,0.20
2022-12-31T14:23:22.260Z,0.40
2022-12-31T14:28:30.465Z,0.23
2022-12-31T14:33:54.591Z,0.40
2022-12-31T14:39:19.603Z,0.57
2022-12-31T14:44:37.939Z,0.40
2022-12-31T14:49:51.158Z,0.47
2022-12-31T14:55:12.134Z,0.57
2022-12-31T15:00:38.207Z,0.63
2022-12-31T15:05:53.348Z,0.70
2022-12-31T15:11:13.290Z,0.90
2022-12-31T15:16:35.342Z,0.80
2022-12-31T15:22:00.694Z,0.93
2022-12-31T15:27:07.705Z,0.80
2022-12-31T15:32:19.878Z,0.80
2022-12-31T15:37:34.160Z,0.73
2022-12-31T15:42:50.029Z,0.80
2022-12-31T15:47:58.948Z,0.80
2022-12-31T15:53:05.505Z,0.57
2022-12-31T15:58:13.429Z,0.67
2022-12-31T16:03:23.074Z,0.63
2022-12-31T16:08:32.409Z,0.60
2022-12-31T16:13:40.247Z,0.70
2022-12-31T16:18:45.412Z,1.00
2022-12-31T16:23:53.159Z,0.80
2022-12-31T16:28:59.958Z,0.90
2022-12-31T16:34:08.691Z,0.90
2022-12-31T16:39:27.034Z,0.90
2022-12-31T16:44:31.636Z,0.90
2022-12-31T16:49:38.765Z,0.77
2022-12-31T16:54:48.391Z,0.80
2022-12-31T16:59:57.104Z,0.53
2022-12-31T17:05:02.166Z,0.70
2022-12-31T17:10:17.161Z,0.80
2022-12-31T17:15:22.459Z,1.00
2022-12-31T17:20:29.077Z,0.90
2022-12-31T17:25:37.115Z,0.80
2022-12-31T17:30:41.922Z,1.10
2022-12-31T17:35:46.783Z,0.87
2022-12-31T17:40:53.650Z,1.00
2022-12-31T17:45:57.295Z,1.03
2022-12-31T17:51:02.169Z,0.90
2022-12-31T17:56:16.665Z,0.90
2022-12-31T18:01:23.389Z,1.03
2022-12-31T18:06:27.641Z,1.10
2022-12-31T18:11:32.951Z,3.00
2022-12-31T18:16:36.553Z,1.87
2022-12-31T18:21:40.415Z,1.60
2022-12-31T18:26:45.582Z,1.20
2022-12-31T18:31:50.790Z,1.30
2022-12-31T18:36:54.402Z,1.00
2022-12-31T18:41:59.291Z,1.70
2022-12-31T18:47:02.887Z,1.10
2022-12-31T18:52:06.847Z,1.40
2022-12-31T18:57:12.489Z,1.50
2022-12-31T19:02:19.967Z,1.17
2022-12-31T19:07:23.555Z,1.10
2022-12-31T19:12:28.823Z,0.60
2022-12-31T19:17:32.473Z,0.90
2022-12-31T19:22:36.072Z,0.90
2022-12-31T19:27:41.000Z,0.80
2022-12-31T19:32:44.635Z,1.33
2022-12-31T19:37:49.643Z,1.10
2022-12-31T19:42:55.986Z,0.60
2022-12-31T19:47:59.583Z,0.70
2022-12-31T19:53:03.199Z,1.00
2022-12-31T19:58:08.652Z,0.87
2022-12-31T20:03:12.799Z,0.93
2022-12-31T20:08:17.065Z,1.20
2022-12-31T20:13:21.989Z,1.10
2022-12-31T20:18:25.550Z,1.10
2022-12-31T20:23:29.088Z,0.90
2022-12-31T20:28:34.060Z,1.00
2022-12-31T20:33:38.978Z,1.10
2022-12-31T20:38:42.571Z,0.90
2022-12-31T20:43:47.615Z,0.53
2022-12-31T20:48:52.876Z,0.80
2022-12-31T20:53:58.114Z,0.60
2022-12-31T20:59:04.384Z,0.80
2022-12-31T21:04:08.189Z,0.70
2022-12-31T21:09:12.007Z,0.90
2022-12-31T21:14:17.145Z,0.70
2022-12-31T21:19:20.943Z,0.70
2022-12-31T21:24:24.525Z,1.00
2022-12-31T21:29:34.297Z,0.80
2022-12-31T21:34:38.396Z,0.80
2022-12-31T21:39:41.967Z,1.00
2022-12-31T21:44:46.949Z,0.53
2022-12-31T21:49:50.594Z,0.80
2022-12-31T21:55:11.702Z,0.60
2022-12-31T22:00:43.625Z,0.90
2022-12-31T22:05:50.572Z,0.70
2022-12-31T22:10:55.027Z,1.10
2022-12-31T22:16:05.112Z,0.80
2022-12-31T22:21:18.334Z,0.90
2022-12-31T22:26:24.799Z,0.87
2022-12-31T22:31:31.197Z,1.10
2022-12-31T22:36:34.868Z,0.87
2022-12-31T22:41:41.080Z,1.00
2022-12-31T22:46:49.069Z,1.30
2022-12-31T22:51:57.359Z,0.77
2022-12-31T22:57:02.448Z,0.90
2022-12-31T23:02:08.197Z,1.20
2022-12-31T23:07:11.734Z,1.40
2022-12-31T23:12:15.266Z,4.13
2022-12-31T23:17:40.003Z,3.43
2022-12-31T23:23:00.847Z,3.83
2022-12-31T23:28:05.223Z,3.87
2022-12-31T23:33:14.963Z,4.00
2022-12-31T23:38:19.355Z,4.63
2022-12-31T23:43:23.860Z,4.73
2022-12-31T23:48:28.810Z,5.70
2022-12-31T23:53:32.559Z,4.63
2022-12-31T23:58:36.157Z,4.30
